Time;durP1;ratioP1;P1;durP2;ratioP2;P2;SDS_P1;SDS_P2;PMS_P1;PMS_P2;Temp;Humidity;BMP_temperature;BMP_pressure;BME280_temperature;BME280_humidity;BME280_pressure;Samples;Min_cycle;Max_cycle;Signal;HPM_P1;HPM_P2
2022/07/04 00:00:01;;;;;;;;;;;25.40;59.90;;;;;;6222064;23;19915;-81
2022/07/04 00:02:28;;;;;;;;;;;25.30;59.80;;;;;;6247935;23;20336;-81
2022/07/04 00:04:54;;;;;;;;;;;25.30;59.90;;;;;;6221432;23;19916;-81
2022/07/04 00:07:21;;;;;;;;;;;25.30;59.90;;;;;;6216216;23;19926;-81
2022/07/04 00:09:48;;;;;;;;;;;25.30;59.80;;;;;;6216399;23;19947;-81
2022/07/04 00:12:15;;;;;;;;;;;25.20;60.00;;;;;;6216042;23;19966;-81
2022/07/04 00:14:42;;;;;;;;;;;25.20;60.10;;;;;;6216636;23;19916;-81
2022/07/04 00:17:09;;;;;;;;;;;25.20;60.10;;;;;;6216002;23;20254;-80
2022/07/04 00:19:36;;;;;;;;;;;25.10;60.10;;;;;;6217944;23;19947;-82
2022/07/04 00:22:03;;;;;;;;;;;25.10;59.70;;;;;;6216421;23;20256;-82
2022/07/04 00:24:30;;;;;;;;;;;25.10;61.70;;;;;;6217119;23;19926;-81
2022/07/04 00:26:56;;;;;;;;;;;25.10;63.10;;;;;;6217080;23;19953;-81
2022/07/04 00:29:23;;;;;;;;;;;25.10;63.70;;;;;;6216002;23;19939;-81
2022/07/04 00:31:50;;;;;;;;;;;25.10;63.60;;;;;;6216075;23;19920;-81
2022/07/04 00:34:17;;;;;;;;;;;25.10;63.70;;;;;;6216213;23;19916;-81
2022/07/04 00:36:43;;;;;;;;;;;25.00;64.10;;;;;;6216066;23;20281;-81
2022/07/04 00:39:10;;;;;;;;;;;25.00;64.50;;;;;;6216091;23;20340;-81
2022/07/04 00:41:37;;;;;;;;;;;24.90;64.80;;;;;;6216871;23;19965;-81
2022/07/04 00:44:05;;;;;;;;;;;24.80;64.90;;;;;;6215863;23;19935;-81
2022/07/04 00:46:40;;;;;;;;;;;24.80;65.00;;;;;;6215707;23;19926;-81
2022/07/04 00:49:07;;;;;;;;;;;24.70;66.80;;;;;;6217121;23;19930;-81
2022/07/04 00:51:34;;;;;;;;;;;24.60;65.60;;;;;;6215598;23;19922;-81
2022/07/04 00:54:01;;;;;;;;;;;24.50;65.70;;;;;;6215735;23;19915;-81
2022/07/04 00:56:29;;;;;;;;;;;24.50;66.10;;;;;;6215788;23;19970;-81
2022/07/04 00:58:56;;;;;;;;;;;24.40;67.50;;;;;;6215795;23;19915;-80
2022/07/04 01:01:22;;;;;;;;;;;24.30;68.30;;;;;;6215520;23;19916;-81
2022/07/04 01:03:49;;;;;;;;;;;24.20;68.60;;;;;;6215677;23;20294;-81
2022/07/04 01:06:16;;;;;;;;;;;24.10;68.70;;;;;;6215083;23;19926;-81
2022/07/04 01:08:44;;;;;;;;;;;24.10;68.10;;;;;;6215589;23;19915;-81
2022/07/04 01:11:10;;;;;;;;;;;24.10;67.80;;;;;;6216090;23;20336;-81
2022/07/04 01:13:38;;;;;;;;;;;24.10;68.80;;;;;;6215778;23;19915;-80
2022/07/04 01:16:04;;;;;;;;;;;24.00;68.00;;;;;;6215640;23;19920;-81
2022/07/04 01:18:31;;;;;;;;;;;24.00;68.00;;;;;;6216102;23;20379;-82
2022/07/04 01:20:58;;;;;;;;;;;24.00;68.90;;;;;;6215421;23;19916;-81
2022/07/04 01:23:25;;;;;;;;;;;23.90;70.10;;;;;;6215618;23;19916;-81
2022/07/04 01:25:52;;;;;;;;;;;23.70;70.20;;;;;;6215274;23;19916;-81
2022/07/04 01:28:20;;;;;;;;;;;23.60;70.50;;;;;;6215246;23;19916;-82
2022/07/04 01:30:47;;;;;;;;;;;23.50;71.20;;;;;;6215807;23;20321;-81
2022/07/04 01:33:14;;;;;;;;;;;23.40;71.10;;;;;;6215284;23;20248;-81
2022/07/04 01:35:41;;;;;;;;;;;23.30;72.40;;;;;;6215814;23;19915;-81
2022/07/04 01:38:08;;;;;;;;;;;23.20;73.10;;;;;;6215799;23;19962;-81
2022/07/04 01:40:35;;;;;;;;;;;23.10;73.70;;;;;;6215349;23;19915;-81
2022/07/04 01:43:02;;;;;;;;;;;23.00;74.70;;;;;;6216303;23;19916;-81
2022/07/04 01:45:29;;;;;;;;;;;22.90;74.50;;;;;;6216344;23;19920;-81
2022/07/04 01:47:56;;;;;;;;;;;22.90;74.10;;;;;;6216390;23;19953;-81
2022/07/04 01:50:23;;;;;;;;;;;22.90;73.90;;;;;;6215187;23;19919;-81
2022/07/04 01:52:50;;;;;;;;;;;22.90;74.10;;;;;;6214755;23;20268;-81
2022/07/04 01:55:17;;;;;;;;;;;22.80;74.40;;;;;;6215285;23;19967;-81
2022/07/04 01:57:43;;;;;;;;;;;22.80;75.50;;;;;;6215144;23;19919;-81
2022/07/04 02:02:56;;;;;;;;;;;22.70;74.80;;;;;;6216653;23;19966;-80
2022/07/04 02:05:23;;;;;;;;;;;22.70;74.60;;;;;;6215177;23;19916;-81
2022/07/04 02:07:50;;;;;;;;;;;22.70;75.70;;;;;;6215085;23;20329;-81
2022/07/04 02:10:17;;;;;;;;;;;22.70;75.20;;;;;;6214465;23;19916;-81
2022/07/04 02:13:02;;;;;;;;;;;22.70;74.90;;;;;;6215676;23;19919;-81
2022/07/04 02:15:33;;;;;;;;;;;22.70;75.10;;;;;;6215174;23;20238;-81
2022/07/04 02:18:01;;;;;;;;;;;22.70;75.10;;;;;;6216229;23;19969;-81
2022/07/04 02:20:28;;;;;;;;;;;22.80;75.30;;;;;;6215137;23;19955;-81
2022/07/04 02:22:55;;;;;;;;;;;22.70;75.60;;;;;;6214970;23;19915;-81
2022/07/04 02:25:22;;;;;;;;;;;22.80;76.10;;;;;;6215053;23;19915;-81
2022/07/04 02:27:48;;;;;;;;;;;22.80;76.00;;;;;;6215707;23;20348;-80
2022/07/04 02:30:15;;;;;;;;;;;22.80;75.40;;;;;;6215080;23;20229;-80
2022/07/04 02:32:42;;;;;;;;;;;22.80;74.80;;;;;;6215165;23;19920;-81
2022/07/04 02:35:09;;;;;;;;;;;22.90;74.00;;;;;;6214985;23;20250;-81
2022/07/04 02:37:36;;;;;;;;;;;22.90;73.60;;;;;;6214749;23;19939;-79
2022/07/04 02:40:04;;;;;;;;;;;22.80;73.90;;;;;;6214451;23;20391;-79
2022/07/04 02:42:31;;;;;;;;;;;22.80;74.90;;;;;;6214567;23;19927;-79
2022/07/04 02:44:58;;;;;;;;;;;22.70;74.80;;;;;;6214629;23;19921;-80
2022/07/04 02:47:26;;;;;;;;;;;22.70;76.10;;;;;;6214101;23;19969;-80
2022/07/04 02:49:53;;;;;;;;;;;22.60;76.90;;;;;;6214590;23;19915;-79
2022/07/04 02:52:20;;;;;;;;;;;22.50;76.50;;;;;;6213725;23;19919;-80
2022/07/04 02:54:48;;;;;;;;;;;22.50;76.30;;;;;;6214448;23;20351;-79
2022/07/04 02:57:15;;;;;;;;;;;22.60;75.50;;;;;;6214250;23;19923;-79
2022/07/04 02:59:42;;;;;;;;;;;22.60;74.90;;;;;;6214265;23;20324;-79
2022/07/04 03:02:08;;;;;;;;;;;22.60;74.60;;;;;;6216750;23;19920;-80
2022/07/04 03:04:35;;;;;;;;;;;22.60;74.40;;;;;;6216228;23;19916;-79
2022/07/04 03:07:02;;;;;;;;;;;22.60;74.50;;;;;;6218731;23;19916;-79
2022/07/04 03:09:29;;;;;;;;;;;22.60;74.60;;;;;;6221820;23;20340;-80
2022/07/04 03:11:56;;;;;;;;;;;22.60;74.30;;;;;;6248288;23;19969;-79
2022/07/04 03:14:22;;;;;;;;;;;22.60;74.10;;;;;;6221523;23;19938;-80
2022/07/04 03:16:49;;;;;;;;;;;22.60;73.90;;;;;;6221343;23;19919;-79
2022/07/04 03:19:17;;;;;;;;;;;22.70;74.40;;;;;;6221514;23;19916;-79
2022/07/04 03:21:44;;;;;;;;;;;22.60;74.50;;;;;;6221089;23;19951;-79
2022/07/04 03:24:11;;;;;;;;;;;22.60;74.60;;;;;;6221468;23;20276;-80
2022/07/04 03:26:38;;;;;;;;;;;22.60;74.90;;;;;;6221386;23;20244;-79
2022/07/04 03:29:04;;;;;;;;;;;22.60;74.90;;;;;;6221565;23;19915;-78
2022/07/04 03:31:31;;;;;;;;;;;22.60;74.90;;;;;;6221254;23;19919;-79
2022/07/04 03:33:58;;;;;;;;;;;22.60;75.50;;;;;;6248149;23;19916;-79
2022/07/04 03:36:25;;;;;;;;;;;22.60;75.50;;;;;;6221341;23;19915;-79
2022/07/04 03:38:52;;;;;;;;;;;22.50;75.40;;;;;;6247510;23;19919;-79
2022/07/04 03:41:18;;;;;;;;;;;22.50;75.60;;;;;;6220925;23;19920;-79
2022/07/04 03:43:45;;;;;;;;;;;22.50;75.70;;;;;;6221026;23;19943;-79
2022/07/04 03:46:12;;;;;;;;;;;22.40;75.80;;;;;;6221429;23;20439;-79
2022/07/04 03:48:39;;;;;;;;;;;22.40;75.90;;;;;;6221211;23;19942;-80
2022/07/04 03:51:06;;;;;;;;;;;22.40;76.20;;;;;;6221161;23;19915;-79
2022/07/04 03:53:32;;;;;;;;;;;22.40;76.30;;;;;;6220971;23;20328;-79
2022/07/04 03:55:59;;;;;;;;;;;22.40;76.50;;;;;;6221228;23;19969;-79
2022/07/04 03:58:26;;;;;;;;;;;22.40;77.60;;;;;;6221193;23;19920;-80
2022/07/04 04:00:52;;;;;;;;;;;22.40;77.10;;;;;;6220939;23;19915;-80
2022/07/04 04:06:05;;;;;;;;;;;22.40;77.70;;;;;;6247580;23;19915;-79
2022/07/04 04:08:31;;;;;;;;;;;22.30;77.80;;;;;;6220691;23;19923;-79
2022/07/04 04:10:58;;;;;;;;;;;22.30;78.10;;;;;;6221521;23;19973;-79
2022/07/04 04:13:25;;;;;;;;;;;22.30;79.00;;;;;;6220834;23;19965;-79
2022/07/04 04:15:52;;;;;;;;;;;22.30;80.40;;;;;;6220937;23;19920;-80
2022/07/04 04:18:18;;;;;;;;;;;22.30;79.50;;;;;;6220819;23;19919;-79
2022/07/04 04:20:45;;;;;;;;;;;22.20;79.60;;;;;;6221051;23;19965;-80
2022/07/04 04:23:12;;;;;;;;;;;22.20;79.80;;;;;;6220646;23;19919;-79
2022/07/04 04:25:39;;;;;;;;;;;22.20;80.00;;;;;;6220487;23;19920;-80
2022/07/04 04:28:05;;;;;;;;;;;22.20;80.10;;;;;;6247302;23;19942;-79
2022/07/04 04:30:33;;;;;;;;;;;22.20;80.30;;;;;;6221245;23;19916;-79
2022/07/04 04:33:00;;;;;;;;;;;22.20;80.40;;;;;;6220623;23;19950;-79
2022/07/04 04:35:26;;;;;;;;;;;22.20;80.80;;;;;;6220479;23;20355;-80
2022/07/04 04:37:53;;;;;;;;;;;22.20;81.50;;;;;;6220760;23;19977;-80
2022/07/04 04:40:20;;;;;;;;;;;22.20;82.30;;;;;;6220669;23;19915;-79
2022/07/04 04:42:47;;;;;;;;;;;22.20;81.80;;;;;;6220940;23;19915;-79
2022/07/04 04:45:13;;;;;;;;;;;22.10;81.40;;;;;;6220284;23;19942;-79
2022/07/04 04:47:42;;;;;;;;;;;22.10;81.40;;;;;;6220811;23;19919;-80
2022/07/04 04:50:11;;;;;;;;;;;22.20;81.30;;;;;;6220517;23;20019;-80
2022/07/04 04:52:38;;;;;;;;;;;22.20;81.50;;;;;;6220643;23;20343;-79
2022/07/04 04:55:05;;;;;;;;;;;22.20;81.70;;;;;;6220682;23;19920;-80
2022/07/04 04:57:32;;;;;;;;;;;22.20;82.20;;;;;;6221353;23;19924;-78
2022/07/04 04:59:58;;;;;;;;;;;22.30;81.70;;;;;;6220353;23;20256;-80
2022/07/04 05:02:26;;;;;;;;;;;22.30;82.10;;;;;;6219955;23;20233;-80
2022/07/04 05:04:53;;;;;;;;;;;22.30;82.10;;;;;;6247541;23;19919;-80
2022/07/04 05:07:20;;;;;;;;;;;22.30;82.30;;;;;;6219900;23;19919;-79
2022/07/04 05:09:47;;;;;;;;;;;22.30;82.60;;;;;;6220935;23;20252;-80
2022/07/04 05:12:14;;;;;;;;;;;22.20;82.30;;;;;;6220866;23;20260;-80
2022/07/04 05:14:40;;;;;;;;;;;22.20;82.00;;;;;;6220776;23;19915;-80
2022/07/04 05:17:08;;;;;;;;;;;22.20;82.00;;;;;;6220734;23;19922;-79
2022/07/04 05:19:34;;;;;;;;;;;22.20;82.40;;;;;;6220605;23;20332;-79
2022/07/04 05:22:01;;;;;;;;;;;22.30;82.40;;;;;;6220023;23;19916;-79
2022/07/04 05:24:28;;;;;;;;;;;22.30;83.10;;;;;;6219542;23;20408;-79
2022/07/04 05:26:55;;;;;;;;;;;22.30;84.90;;;;;;6220219;23;19915;-79
2022/07/04 05:29:24;;;;;;;;;;;22.30;84.50;;;;;;6220734;23;20348;-80
2022/07/04 05:31:51;;;;;;;;;;;22.30;83.70;;;;;;6220605;23;19922;-79
2022/07/04 05:34:18;;;;;;;;;;;22.30;84.00;;;;;;6220018;23;19930;-80
2022/07/04 05:36:45;;;;;;;;;;;22.30;83.90;;;;;;6218741;23;19973;-81
2022/07/04 05:39:12;;;;;;;;;;;22.30;83.60;;;;;;6219875;23;20105;-79
2022/07/04 05:41:39;;;;;;;;;;;22.30;85.30;;;;;;6246427;23;20332;-80
2022/07/04 05:44:05;;;;;;;;;;;22.20;86.00;;;;;;6220256;23;20233;-78
2022/07/04 05:46:32;;;;;;;;;;;22.20;87.00;;;;;;6219270;23;19924;-80
2022/07/04 05:48:59;;;;;;;;;;;22.10;86.60;;;;;;6220141;23;19942;-79
2022/07/04 05:51:26;;;;;;;;;;;22.10;86.60;;;;;;6219949;23;19915;-79
2022/07/04 05:53:53;;;;;;;;;;;22.10;87.60;;;;;;6220437;23;19926;-80
2022/07/04 05:56:19;;;;;;;;;;;22.10;86.90;;;;;;6219677;23;20303;-79
2022/07/04 05:58:46;;;;;;;;;;;22.10;85.50;;;;;;6245274;23;20387;-79
2022/07/04 06:01:13;;;;;;;;;;;22.20;81.70;;;;;;6218696;23;19969;-79
2022/07/04 06:03:40;;;;;;;;;;;22.30;79.20;;;;;;6219276;23;19919;-79
2022/07/04 06:06:07;;;;;;;;;;;22.30;78.50;;;;;;6246542;23;19970;-79
2022/07/04 06:08:34;;;;;;;;;;;22.30;78.00;;;;;;6219573;23;20293;-79
2022/07/04 06:11:00;;;;;;;;;;;22.40;77.10;;;;;;6219519;23;19920;-78
2022/07/04 06:13:27;;;;;;;;;;;22.50;76.40;;;;;;6219006;23;20343;-79
2022/07/04 06:15:54;;;;;;;;;;;22.60;75.70;;;;;;6219369;23;19981;-80
2022/07/04 06:18:21;;;;;;;;;;;22.60;75.50;;;;;;6220112;23;19961;-79
2022/07/04 06:20:48;;;;;;;;;;;22.70;75.00;;;;;;6219949;23;19942;-79
2022/07/04 06:23:15;;;;;;;;;;;22.70;74.60;;;;;;6220072;23;19916;-79
2022/07/04 06:25:42;;;;;;;;;;;22.70;75.50;;;;;;6246763;23;19915;-79
2022/07/04 06:28:08;;;;;;;;;;;22.80;75.60;;;;;;6219576;23;19919;-81
2022/07/04 06:30:56;;;;;;;;;;;22.80;74.80;;;;;;6223128;23;19951;-80
2022/07/04 06:33:22;;;;;;;;;;;22.90;74.30;;;;;;6219206;23;19919;-80
2022/07/04 06:35:54;;;;;;;;;;;22.90;74.30;;;;;;6217949;23;20362;-80
2022/07/04 06:38:25;;;;;;;;;;;23.00;73.80;;;;;;6219373;23;20248;-80
2022/07/04 06:40:58;;;;;;;;;;;23.10;73.40;;;;;;6245337;23;19985;-79
2022/07/04 06:43:25;;;;;;;;;;;23.10;72.40;;;;;;6218705;23;19981;-79
2022/07/04 06:45:52;;;;;;;;;;;23.20;71.60;;;;;;6218824;23;19922;-79
2022/07/04 06:48:19;;;;;;;;;;;23.30;70.60;;;;;;6218715;23;19920;-79
2022/07/04 06:50:46;;;;;;;;;;;23.40;70.60;;;;;;6219559;23;20340;-79
2022/07/04 06:53:13;;;;;;;;;;;23.50;70.70;;;;;;6218922;23;19978;-78
2022/07/04 06:55:41;;;;;;;;;;;23.60;69.80;;;;;;6219810;23;19986;-79
2022/07/04 06:58:08;;;;;;;;;;;23.80;69.60;;;;;;6220013;23;20686;-78
2022/07/04 07:00:35;;;;;;;;;;;24.00;68.10;;;;;;6244401;23;19915;-78
2022/07/04 07:03:03;;;;;;;;;;;24.20;68.20;;;;;;6244687;23;20088;-79
2022/07/04 07:05:30;;;;;;;;;;;24.40;67.30;;;;;;6246064;23;19919;-80
2022/07/04 07:08:17;;;;;;;;;;;24.50;66.70;;;;;;6214178;23;19958;-79
2022/07/04 07:10:43;;;;;;;;;;;24.70;66.50;;;;;;6214428;23;20344;-79
2022/07/04 07:13:10;;;;;;;;;;;24.90;65.10;;;;;;6215226;23;19938;-79
2022/07/04 07:15:37;;;;;;;;;;;25.10;65.50;;;;;;6215551;23;19916;-79
2022/07/04 07:18:04;;;;;;;;;;;25.20;63.70;;;;;;6214046;23;19916;-79
2022/07/04 07:20:31;;;;;;;;;;;25.40;62.90;;;;;;6214414;23;19916;-80
2022/07/04 07:22:58;;;;;;;;;;;25.50;62.50;;;;;;6214248;23;19916;-79
2022/07/04 07:25:25;;;;;;;;;;;25.70;62.90;;;;;;6215955;23;19978;-79
2022/07/04 07:27:51;;;;;;;;;;;25.80;62.30;;;;;;6214066;23;19916;-79
2022/07/04 07:30:18;;;;;;;;;;;26.10;60.70;;;;;;6214785;23;20414;-80
2022/07/04 07:32:45;;;;;;;;;;;26.30;61.20;;;;;;6213837;23;19920;-80
2022/07/04 07:35:12;;;;;;;;;;;26.40;60.90;;;;;;6213823;23;20245;-79
2022/07/04 07:37:38;;;;;;;;;;;26.70;60.00;;;;;;6214009;23;20326;-78
2022/07/04 07:40:05;;;;;;;;;;;26.90;58.90;;;;;;6213890;23;19920;-79
2022/07/04 07:42:33;;;;;;;;;;;27.10;56.30;;;;;;6212612;23;19970;-80
2022/07/04 07:45:00;;;;;;;;;;;27.20;57.30;;;;;;6213160;23;20022;-80
2022/07/04 07:47:28;;;;;;;;;;;27.40;56.00;;;;;;6216296;23;20287;-80
2022/07/04 07:49:55;;;;;;;;;;;27.60;54.30;;;;;;6214523;23;20333;-79
2022/07/04 07:52:22;;;;;;;;;;;27.70;54.50;;;;;;6214872;23;19916;-79
2022/07/04 07:54:53;;;;;;;;;;;27.80;53.70;;;;;;6216733;23;19920;-79
2022/07/04 07:57:28;;;;;;;;;;;27.90;53.30;;;;;;6216466;23;19916;-80
2022/07/04 07:59:55;;;;;;;;;;;28.10;55.30;;;;;;6216217;23;19916;-79
2022/07/04 08:05:08;;;;;;;;;;;28.50;51.90;;;;;;6217353;23;20252;-78
2022/07/04 08:07:35;;;;;;;;;;;28.70;52.50;;;;;;6214097;23;19919;-79
2022/07/04 08:10:02;;;;;;;;;;;28.80;52.50;;;;;;6214922;23;19915;-79
2022/07/04 08:12:28;;;;;;;;;;;29.00;53.40;;;;;;6214737;23;19919;-79
2022/07/04 08:14:55;;;;;;;;;;;29.20;52.30;;;;;;6214659;23;19916;-79
2022/07/04 08:17:22;;;;;;;;;;;29.30;49.30;;;;;;6215211;23;19916;-80
2022/07/04 08:19:49;;;;;;;;;;;29.50;49.10;;;;;;6214637;23;19919;-80
2022/07/04 08:22:16;;;;;;;;;;;29.50;53.30;;;;;;6215599;23;19966;-79
2022/07/04 08:24:43;;;;;;;;;;;29.70;56.20;;;;;;6214818;23;20399;-79
2022/07/04 08:27:11;;;;;;;;;;;29.90;55.80;;;;;;6214537;23;19923;-79
2022/07/04 08:29:37;;;;;;;;;;;29.90;54.50;;;;;;6214820;23;19916;-80
2022/07/04 08:32:07;;;;;;;;;;;30.00;54.70;;;;;;6214848;23;19915;-79
2022/07/04 08:34:34;;;;;;;;;;;30.10;56.00;;;;;;6216651;23;19923;-79
2022/07/04 08:37:01;;;;;;;;;;;30.30;56.10;;;;;;6214995;23;19920;-80
2022/07/04 08:39:28;;;;;;;;;;;30.40;53.60;;;;;;6215292;23;20336;-80
2022/07/04 08:41:55;;;;;;;;;;;30.40;51.70;;;;;;6216442;23;19919;-80
2022/07/04 08:44:23;;;;;;;;;;;30.40;51.80;;;;;;6215246;23;19970;-80
2022/07/04 08:46:51;;;;;;;;;;;30.40;52.70;;;;;;6215328;23;19966;-79
2022/07/04 08:49:21;;;;;;;;;;;30.50;52.60;;;;;;6215684;23;20265;-79
2022/07/04 08:51:52;;;;;;;;;;;30.50;50.00;;;;;;6215524;23;19927;-79
2022/07/04 08:59:54;;;;;;;;;;;30.60;48.00;;;;;;6216407;23;19938;-80
2022/07/04 09:02:21;;;;;;;;;;;30.70;48.70;;;;;;6214705;23;19916;-79
2022/07/04 09:04:49;;;;;;;;;;;30.70;47.10;;;;;;6213899;23;20345;-81
2022/07/04 09:07:17;;;;;;;;;;;30.80;48.40;;;;;;6219340;23;19923;-79
2022/07/04 09:09:46;;;;;;;;;;;30.90;48.20;;;;;;6219763;23;20267;-79
2022/07/04 09:12:17;;;;;;;;;;;31.10;48.20;;;;;;6219467;23;20003;-79
2022/07/04 09:14:44;;;;;;;;;;;31.20;46.90;;;;;;6219612;23;19923;-79
2022/07/04 09:17:12;;;;;;;;;;;31.30;47.70;;;;;;6220021;23;19919;-79
2022/07/04 09:19:39;;;;;;;;;;;31.50;48.10;;;;;;6219434;23;19923;-79
2022/07/04 09:22:12;;;;;;;;;;;31.50;45.10;;;;;;6219648;23;20366;-79
2022/07/04 09:24:54;;;;;;;;;;;31.60;46.00;;;;;;6245851;23;20344;-79
2022/07/04 09:27:31;;;;;;;;;;;31.70;46.10;;;;;;6220710;23;19924;-80
2022/07/04 09:29:58;;;;;;;;;;;31.80;46.50;;;;;;6219824;23;19969;-79
2022/07/04 09:32:45;;;;;;;;;;;32.00;44.40;;;;;;6218863;23;19926;-80
2022/07/04 09:35:13;;;;;;;;;;;32.00;44.70;;;;;;6219246;23;20268;-79
2022/07/04 09:37:47;;;;;;;;;;;31.90;43.40;;;;;;6246773;23;19982;-79
2022/07/04 09:40:24;;;;;;;;;;;31.80;43.50;;;;;;6218933;23;20361;-80
2022/07/04 09:42:52;;;;;;;;;;;31.70;43.50;;;;;;6219342;23;20349;-79
2022/07/04 09:45:22;;;;;;;;;;;31.70;45.00;;;;;;6219633;23;19923;-80
2022/07/04 09:47:50;;;;;;;;;;;31.70;44.90;;;;;;6219834;23;19924;-80
2022/07/04 09:50:20;;;;;;;;;;;31.80;45.90;;;;;;6220161;23;19970;-79
2022/07/04 09:52:53;;;;;;;;;;;31.90;45.20;;;;;;6219581;23;19923;-79
2022/07/04 09:55:30;;;;;;;;;;;32.00;46.20;;;;;;6220097;23;19978;-80
2022/07/04 09:58:04;;;;;;;;;;;32.00;44.60;;;;;;6219673;23;20264;-79
2022/07/04 10:00:32;;;;;;;;;;;31.90;44.00;;;;;;6219621;23;20341;-79
2022/07/04 10:03:19;;;;;;;;;;;31.80;44.60;;;;;;6220035;23;19919;-79
2022/07/04 10:05:46;;;;;;;;;;;31.70;44.60;;;;;;6219927;23;19920;-79
2022/07/04 10:08:20;;;;;;;;;;;31.80;44.20;;;;;;6214001;23;19927;-80
2022/07/04 10:10:47;;;;;;;;;;;31.80;43.20;;;;;;6214779;23;19920;-80
2022/07/04 10:13:14;;;;;;;;;;;31.90;42.70;;;;;;6216279;23;19924;-80
2022/07/04 10:15:41;;;;;;;;;;;31.90;44.40;;;;;;6215172;23;19924;-79
2022/07/04 10:18:09;;;;;;;;;;;32.00;44.40;;;;;;6214782;23;19952;-79
2022/07/04 10:20:36;;;;;;;;;;;32.00;42.90;;;;;;6214476;23;19927;-80
2022/07/04 10:23:03;;;;;;;;;;;32.00;43.10;;;;;;6214447;23;19966;-80
2022/07/04 10:25:30;;;;;;;;;;;32.10;43.10;;;;;;6212961;23;19919;-80
2022/07/04 10:27:56;;;;;;;;;;;32.20;43.50;;;;;;6213860;23;19919;-79
2022/07/04 10:30:25;;;;;;;;;;;32.30;43.10;;;;;;6214748;23;19924;-79
2022/07/04 10:32:54;;;;;;;;;;;32.30;43.00;;;;;;6214116;23;19919;-79
2022/07/04 10:35:39;;;;;;;;;;;32.50;43.70;;;;;;6213146;23;20340;-79
2022/07/04 10:38:09;;;;;;;;;;;32.60;42.90;;;;;;6214017;23;19970;-79
2022/07/04 10:40:43;;;;;;;;;;;32.80;42.40;;;;;;6213164;23;19920;-80
2022/07/04 10:43:30;;;;;;;;;;;32.80;41.70;;;;;;6213765;23;19919;-80
2022/07/04 10:46:12;;;;;;;;;;;32.90;42.70;;;;;;6214050;23;19920;-79
2022/07/04 10:48:52;;;;;;;;;;;33.00;41.70;;;;;;6213725;23;19977;-80
2022/07/04 10:51:42;;;;;;;;;;;33.10;41.70;;;;;;6213301;23;20363;-80
2022/07/04 10:54:32;;;;;;;;;;;33.20;42.70;;;;;;6202400;23;19926;-80
2022/07/04 10:57:14;;;;;;;;;;;33.30;42.30;;;;;;6213688;23;19927;-80
2022/07/04 10:59:42;;;;;;;;;;;33.40;40.80;;;;;;6213633;23;19920;-79
2022/07/04 11:02:11;;;;;;;;;;;33.20;41.10;;;;;;6212850;23;19931;-80
2022/07/04 11:05:02;;;;;;;;;;;33.00;41.10;;;;;;6213633;23;19939;-80
2022/07/04 11:07:29;;;;;;;;;;;33.00;43.00;;;;;;6213212;23;19924;-80
2022/07/04 11:10:16;;;;;;;;;;;33.10;42.00;;;;;;6213996;23;20356;-79
2022/07/04 11:12:55;;;;;;;;;;;33.20;42.20;;;;;;6214013;23;19920;-79
2022/07/04 11:15:32;;;;;;;;;;;33.30;42.30;;;;;;6213400;23;19920;-79
2022/07/04 11:18:10;;;;;;;;;;;33.50;41.50;;;;;;6213671;23;19920;-80
2022/07/04 11:20:42;;;;;;;;;;;33.30;40.60;;;;;;6213772;23;20012;-79
2022/07/04 11:23:09;;;;;;;;;;;33.20;40.50;;;;;;6216534;23;19924;-80
2022/07/04 11:25:36;;;;;;;;;;;33.20;41.20;;;;;;6215885;23;19924;-80
2022/07/04 11:28:23;;;;;;;;;;;33.20;42.70;;;;;;6216737;23;19932;-80
2022/07/04 11:31:10;;;;;;;;;;;33.30;41.50;;;;;;6217103;23;19927;-80
2022/07/04 11:33:39;;;;;;;;;;;33.50;41.40;;;;;;6216376;23;19939;-80
2022/07/04 11:36:07;;;;;;;;;;;33.50;41.60;;;;;;6216157;23;19927;-80
2022/07/04 11:38:45;;;;;;;;;;;33.50;42.20;;;;;;6217101;23;19931;-80
2022/07/04 11:46:42;;;;;;;;;;;32.80;40.60;;;;;;6216962;23;19920;-80
2022/07/04 11:49:10;;;;;;;;;;;32.50;42.20;;;;;;6216033;23;19924;-80
2022/07/04 11:51:47;;;;;;;;;;;32.20;42.60;;;;;;6215863;23;20256;-80
2022/07/04 11:54:14;;;;;;;;;;;32.00;43.80;;;;;;6215792;23;19924;-80
2022/07/04 11:57:11;;;;;;;;;;;31.90;43.90;;;;;;6215996;23;19958;-80
2022/07/04 11:59:38;;;;;;;;;;;31.80;44.60;;;;;;6217714;23;19920;-79
2022/07/04 12:02:12;;;;;;;;;;;31.80;45.00;;;;;;6215962;23;19928;-80
2022/07/04 12:04:41;;;;;;;;;;;31.80;44.30;;;;;;6216048;23;19924;-80
2022/07/04 12:07:09;;;;;;;;;;;31.70;44.00;;;;;;6218967;23;20336;-79
2022/07/04 12:09:36;;;;;;;;;;;31.60;44.30;;;;;;6221324;23;19919;-80
2022/07/04 12:12:03;;;;;;;;;;;31.40;44.90;;;;;;6221031;23;19924;-80
2022/07/04 12:14:30;;;;;;;;;;;31.30;45.50;;;;;;6221312;23;19970;-80
2022/07/04 12:17:09;;;;;;;;;;;31.10;44.60;;;;;;6221191;23;19920;-80
2022/07/04 12:19:36;;;;;;;;;;;31.00;45.00;;;;;;6220981;23;19919;-80
2022/07/04 12:22:03;;;;;;;;;;;30.80;46.80;;;;;;6220581;23;19919;-80
2022/07/04 12:24:42;;;;;;;;;;;30.60;48.10;;;;;;6221015;23;19949;-79
2022/07/04 12:27:16;;;;;;;;;;;30.30;48.80;;;;;;6220460;23;19931;-79
2022/07/04 12:29:46;;;;;;;;;;;30.10;49.30;;;;;;6221129;23;20234;-80
2022/07/04 12:32:14;;;;;;;;;;;30.00;50.10;;;;;;6220659;23;19923;-80
2022/07/04 12:34:41;;;;;;;;;;;30.00;50.70;;;;;;6220103;23;19969;-80
2022/07/04 12:37:08;;;;;;;;;;;29.90;51.90;;;;;;6220637;23;19919;-80
2022/07/04 12:39:37;;;;;;;;;;;29.80;56.20;;;;;;6220736;23;19951;-81
2022/07/04 12:42:08;;;;;;;;;;;29.50;60.40;;;;;;6221131;23;19946;-81
2022/07/04 12:44:36;;;;;;;;;;;29.10;62.00;;;;;;6220158;23;20398;-80
2022/07/04 12:47:04;;;;;;;;;;;28.90;65.90;;;;;;6220063;23;19965;-80
2022/07/04 12:49:43;;;;;;;;;;;28.80;67.80;;;;;;6221671;23;19927;-81
2022/07/04 12:52:14;;;;;;;;;;;28.80;68.60;;;;;;6219981;23;19958;-81
2022/07/04 12:54:42;;;;;;;;;;;28.90;68.00;;;;;;6220728;23;19923;-81
2022/07/04 12:57:12;;;;;;;;;;;29.20;69.50;;;;;;6247339;23;19923;-80
2022/07/04 12:59:40;;;;;;;;;;;29.60;66.90;;;;;;6220641;23;20017;-80
2022/07/04 13:02:08;;;;;;;;;;;30.10;64.30;;;;;;6215344;23;19926;-79
2022/07/04 13:04:35;;;;;;;;;;;30.50;63.20;;;;;;6218034;23;19926;-80
2022/07/04 13:07:13;;;;;;;;;;;30.70;61.90;;;;;;6218829;23;19920;-79
2022/07/04 13:09:40;;;;;;;;;;;31.00;61.00;;;;;;6218525;23;19920;-80
2022/07/04 13:12:25;;;;;;;;;;;31.30;59.40;;;;;;6218607;23;20414;-80
2022/07/04 13:14:53;;;;;;;;;;;31.70;57.80;;;;;;6218644;23;19920;-81
2022/07/04 13:17:20;;;;;;;;;;;31.90;56.30;;;;;;6218628;23;20238;-80
2022/07/04 13:19:47;;;;;;;;;;;32.00;57.40;;;;;;6219336;23;20331;-81
2022/07/04 13:22:14;;;;;;;;;;;32.30;56.30;;;;;;6218594;23;20299;-80
2022/07/04 13:24:41;;;;;;;;;;;32.60;55.20;;;;;;6218766;23;19924;-80
2022/07/04 13:27:07;;;;;;;;;;;32.70;53.70;;;;;;6218792;23;19919;-80
2022/07/04 13:29:34;;;;;;;;;;;32.80;55.10;;;;;;6220054;23;19927;-80
2022/07/04 13:32:02;;;;;;;;;;;33.00;54.70;;;;;;6218934;23;20283;-80
2022/07/04 13:34:35;;;;;;;;;;;33.10;52.90;;;;;;6220322;23;19919;-80
2022/07/04 13:37:03;;;;;;;;;;;33.40;51.40;;;;;;6219639;23;19919;-80
2022/07/04 13:39:29;;;;;;;;;;;33.60;50.10;;;;;;6220009;23;19969;-80
2022/07/04 13:42:56;;;;;;;;;;;33.70;48.10;;;;;;6223122;23;19943;-80
2022/07/04 13:45:03;;;;;;;;;;;33.80;49.00;;;;;;6245202;23;19969;-80
2022/07/04 13:47:30;;;;;;;;;;;34.00;49.90;;;;;;6219327;23;19958;-80
2022/07/04 13:49:57;;;;;;;;;;;34.10;48.70;;;;;;6218855;23;20489;-80
2022/07/04 13:52:24;;;;;;;;;;;34.30;47.20;;;;;;6219263;23;20121;-80
2022/07/04 13:54:51;;;;;;;;;;;34.50;46.80;;;;;;6245998;23;19920;-80
2022/07/04 13:57:18;;;;;;;;;;;34.60;46.00;;;;;;6219001;23;19928;-81
2022/07/04 13:59:45;;;;;;;;;;;34.80;46.30;;;;;;6219056;23;19962;-80
2022/07/04 14:02:12;;;;;;;;;;;35.00;44.80;;;;;;6218184;23;19998;-80
2022/07/04 14:04:39;;;;;;;;;;;35.20;44.30;;;;;;6218500;23;20340;-80
2022/07/04 14:07:05;;;;;;;;;;;35.30;43.20;;;;;;6219026;23;20229;-80
2022/07/04 14:09:40;;;;;;;;;;;35.50;41.80;;;;;;6220050;23;19924;-80
2022/07/04 14:12:07;;;;;;;;;;;35.70;42.30;;;;;;6218710;23;19919;-79
2022/07/04 14:14:34;;;;;;;;;;;35.80;40.90;;;;;;6219078;23;20260;-80
2022/07/04 14:17:01;;;;;;;;;;;35.80;40.80;;;;;;6218584;23;19919;-80
2022/07/04 14:19:48;;;;;;;;;;;35.80;39.40;;;;;;6202491;23;19990;-80
2022/07/04 14:22:14;;;;;;;;;;;35.80;39.20;;;;;;6219027;23;19920;-80
2022/07/04 14:24:41;;;;;;;;;;;35.90;39.20;;;;;;6215825;23;19950;-81
2022/07/04 14:27:11;;;;;;;;;;;35.80;39.00;;;;;;6218885;23;19950;-80
2022/07/04 14:29:38;;;;;;;;;;;35.70;38.40;;;;;;6217462;23;20398;-80
2022/07/04 14:32:09;;;;;;;;;;;35.50;37.20;;;;;;6219138;23;19977;-81
2022/07/04 14:34:36;;;;;;;;;;;35.20;38.40;;;;;;6217580;23;20355;-80
2022/07/04 14:37:03;;;;;;;;;;;35.00;38.90;;;;;;6219027;23;19919;-80
2022/07/04 14:39:29;;;;;;;;;;;34.70;39.90;;;;;;6245957;23;19951;-80
2022/07/04 14:41:56;;;;;;;;;;;34.50;41.40;;;;;;6219972;23;19924;-80
2022/07/04 14:44:23;;;;;;;;;;;34.40;41.80;;;;;;6220247;23;19966;-79